sensor_id;sensor_type;location;lat;lon;timestamp;P1;durP1;ratioP1;P2;durP2;ratioP2
4409;SDS011;2218;51.408;7.208;2023-09-08T00:00:47;1.60;;;1.50;;
4409;SDS011;2218;51.408;7.208;2023-09-08T00:03:14;2.07;;;1.70;;
4409;SDS011;2218;51.408;7.208;2023-09-08T00:05:41;1.70;;;1.60;;
4409;SDS011;2218;51.408;7.208;2023-09-08T00:08:10;1.93;;;1.83;;
4409;SDS011;2218;51.408;7.208;2023-09-08T00:10:36;1.80;;;1.70;;
4409;SDS011;2218;51.408;7.208;2023-09-08T00:13:03;1.90;;;1.80;;
4409;SDS011;2218;51.408;7.208;2023-09-08T00:15:33;2.03;;;1.93;;
4409;SDS011;2218;51.408;7.208;2023-09-08T00:18:00;2.03;;;1.90;;
4409;SDS011;2218;51.408;7.208;2023-09-08T00:20:27;1.70;;;1.60;;
4409;SDS011;2218;51.408;7.208;2023-09-08T00:22:54;1.77;;;1.67;;
4409;SDS011;2218;51.408;7.208;2023-09-08T00:25:23;1.70;;;1.60;;
4409;SDS011;2218;51.408;7.208;2023-09-08T00:27:50;1.67;;;1.57;;
4409;SDS011;2218;51.408;7.208;2023-09-08T00:30:17;1.77;;;1.67;;
4409;SDS011;2218;51.408;7.208;2023-09-08T00:32:44;1.73;;;1.63;;
4409;SDS011;2218;51.408;7.208;2023-09-08T00:35:11;1.60;;;1.50;;
4409;SDS011;2218;51.408;7.208;2023-09-08T00:37:39;2.30;;;2.20;;
4409;SDS011;2218;51.408;7.208;2023-09-08T00:40:07;2.00;;;1.90;;
4409;SDS011;2218;51.408;7.208;2023-09-08T00:42:36;1.97;;;1.87;;
4409;SDS011;2218;51.408;7.208;2023-09-08T00:45:03;1.63;;;1.53;;
4409;SDS011;2218;51.408;7.208;2023-09-08T00:47:32;2.10;;;1.80;;
4409;SDS011;2218;51.408;7.208;2023-09-08T00:50:00;1.90;;;1.80;;
4409;SDS011;2218;51.408;7.208;2023-09-08T00:52:29;2.07;;;1.97;;
4409;SDS011;2218;51.408;7.208;2023-09-08T00:54:57;2.20;;;2.00;;
4409;SDS011;2218;51.408;7.208;2023-09-08T00:57:25;2.13;;;2.00;;
4409;SDS011;2218;51.408;7.208;2023-09-08T00:59:53;1.90;;;1.80;;
4409;SDS011;2218;51.408;7.208;2023-09-08T01:02:20;1.70;;;1.60;;
4409;SDS011;2218;51.408;7.208;2023-09-08T01:04:48;1.80;;;1.70;;
4409;SDS011;2218;51.408;7.208;2023-09-08T01:07:16;1.77;;;1.67;;
4409;SDS011;2218;51.408;7.208;2023-09-08T01:09:45;2.27;;;2.07;;
4409;SDS011;2218;51.408;7.208;2023-09-08T01:12:15;1.83;;;1.73;;
4409;SDS011;2218;51.408;7.208;2023-09-08T01:14:42;2.00;;;1.90;;
4409;SDS011;2218;51.408;7.208;2023-09-08T01:17:10;1.70;;;1.60;;
4409;SDS011;2218;51.408;7.208;2023-09-08T01:19:38;1.93;;;1.83;;
4409;SDS011;2218;51.408;7.208;2023-09-08T01:25:14;1.70;;;1.60;;
4409;SDS011;2218;51.408;7.208;2023-09-08T01:27:48;1.80;;;1.70;;
4409;SDS011;2218;51.408;7.208;2023-09-08T01:30:18;1.87;;;1.77;;
4409;SDS011;2218;51.408;7.208;2023-09-08T01:32:47;1.70;;;1.60;;
4409;SDS011;2218;51.408;7.208;2023-09-08T01:35:17;2.10;;;2.00;;
4409;SDS011;2218;51.408;7.208;2023-09-08T01:37:45;2.10;;;2.00;;
4409;SDS011;2218;51.408;7.208;2023-09-08T01:40:16;4.10;;;2.50;;
4409;SDS011;2218;51.408;7.208;2023-09-08T01:42:44;1.93;;;1.80;;
4409;SDS011;2218;51.408;7.208;2023-09-08T01:45:12;1.73;;;1.63;;
4409;SDS011;2218;51.408;7.208;2023-09-08T01:47:38;2.20;;;2.10;;
4409;SDS011;2218;51.408;7.208;2023-09-08T01:50:06;1.63;;;1.53;;
4409;SDS011;2218;51.408;7.208;2023-09-08T01:52:33;1.70;;;1.60;;
4409;SDS011;2218;51.408;7.208;2023-09-08T01:55:01;1.67;;;1.57;;
4409;SDS011;2218;51.408;7.208;2023-09-08T01:57:29;1.90;;;1.80;;
4409;SDS011;2218;51.408;7.208;2023-09-08T01:59:56;1.73;;;1.63;;
4409;SDS011;2218;51.408;7.208;2023-09-08T02:02:24;2.00;;;1.90;;
4409;SDS011;2218;51.408;7.208;2023-09-08T02:04:51;1.70;;;1.60;;
4409;SDS011;2218;51.408;7.208;2023-09-08T02:07:18;1.87;;;1.77;;
4409;SDS011;2218;51.408;7.208;2023-09-08T02:09:48;2.00;;;1.90;;
4409;SDS011;2218;51.408;7.208;2023-09-08T02:12:15;2.03;;;1.93;;
4409;SDS011;2218;51.408;7.208;2023-09-08T02:14:43;1.70;;;1.60;;
4409;SDS011;2218;51.408;7.208;2023-09-08T02:17:10;1.83;;;1.73;;
4409;SDS011;2218;51.408;7.208;2023-09-08T02:19:37;2.20;;;2.00;;
4409;SDS011;2218;51.408;7.208;2023-09-08T02:22:04;2.27;;;2.17;;
4409;SDS011;2218;51.408;7.208;2023-09-08T02:24:31;2.00;;;1.90;;
4409;SDS011;2218;51.408;7.208;2023-09-08T02:26:58;1.70;;;1.60;;
4409;SDS011;2218;51.408;7.208;2023-09-08T02:29:25;1.70;;;1.60;;
4409;SDS011;2218;51.408;7.208;2023-09-08T02:31:54;1.63;;;1.53;;
4409;SDS011;2218;51.408;7.208;2023-09-08T02:34:21;2.13;;;2.03;;
4409;SDS011;2218;51.408;7.208;2023-09-08T02:36:48;1.80;;;1.70;;
4409;SDS011;2218;51.408;7.208;2023-09-08T02:39:17;2.30;;;2.20;;
4409;SDS011;2218;51.408;7.208;2023-09-08T02:41:44;1.90;;;1.80;;
4409;SDS011;2218;51.408;7.208;2023-09-08T02:44:11;1.93;;;1.83;;
4409;SDS011;2218;51.408;7.208;2023-09-08T02:46:38;1.50;;;1.40;;
4409;SDS011;2218;51.408;7.208;2023-09-08T02:49:07;2.23;;;1.97;;
4409;SDS011;2218;51.408;7.208;2023-09-08T02:51:34;2.07;;;1.97;;
4409;SDS011;2218;51.408;7.208;2023-09-08T02:54:01;1.83;;;1.73;;
4409;SDS011;2218;51.408;7.208;2023-09-08T02:56:27;1.83;;;1.73;;
4409;SDS011;2218;51.408;7.208;2023-09-08T02:58:54;2.00;;;1.90;;
4409;SDS011;2218;51.408;7.208;2023-09-08T03:01:21;1.87;;;1.77;;
4409;SDS011;2218;51.408;7.208;2023-09-08T03:03:48;1.67;;;1.57;;
4409;SDS011;2218;51.408;7.208;2023-09-08T03:06:19;2.00;;;1.90;;
4409;SDS011;2218;51.408;7.208;2023-09-08T03:08:47;1.97;;;1.87;;
4409;SDS011;2218;51.408;7.208;2023-09-08T03:11:14;2.03;;;1.93;;
4409;SDS011;2218;51.408;7.208;2023-09-08T03:13:41;1.83;;;1.50;;
4409;SDS011;2218;51.408;7.208;2023-09-08T03:16:09;2.03;;;1.93;;
4409;SDS011;2218;51.408;7.208;2023-09-08T03:18:36;2.17;;;1.97;;
4409;SDS011;2218;51.408;7.208;2023-09-08T03:21:04;1.80;;;1.70;;
4409;SDS011;2218;51.408;7.208;2023-09-08T03:23:38;2.00;;;1.90;;
4409;SDS011;2218;51.408;7.208;2023-09-08T03:26:06;2.03;;;1.87;;
4409;SDS011;2218;51.408;7.208;2023-09-08T03:28:34;1.90;;;1.80;;
4409;SDS011;2218;51.408;7.208;2023-09-08T03:31:04;1.83;;;1.73;;
4409;SDS011;2218;51.408;7.208;2023-09-08T03:33:33;1.60;;;1.50;;
4409;SDS011;2218;51.408;7.208;2023-09-08T03:36:01;1.83;;;1.73;;
4409;SDS011;2218;51.408;7.208;2023-09-08T03:38:29;1.90;;;1.80;;
4409;SDS011;2218;51.408;7.208;2023-09-08T03:40:57;1.70;;;1.60;;
4409;SDS011;2218;51.408;7.208;2023-09-08T03:43:25;2.00;;;1.90;;
4409;SDS011;2218;51.408;7.208;2023-09-08T03:45:52;1.80;;;1.70;;
4409;SDS011;2218;51.408;7.208;2023-09-08T03:48:19;2.03;;;1.93;;
4409;SDS011;2218;51.408;7.208;2023-09-08T03:50:45;1.80;;;1.70;;
4409;SDS011;2218;51.408;7.208;2023-09-08T03:53:13;2.67;;;2.07;;
4409;SDS011;2218;51.408;7.208;2023-09-08T03:55:40;1.93;;;1.83;;
4409;SDS011;2218;51.408;7.208;2023-09-08T03:58:09;1.80;;;1.70;;
4409;SDS011;2218;51.408;7.208;2023-09-08T04:00:36;1.40;;;1.30;;
4409;SDS011;2218;51.408;7.208;2023-09-08T04:03:03;1.77;;;1.67;;
4409;SDS011;2218;51.408;7.208;2023-09-08T04:05:30;1.67;;;1.57;;
4409;SDS011;2218;51.408;7.208;2023-09-08T04:07:57;1.90;;;1.70;;
4409;SDS011;2218;51.408;7.208;2023-09-08T04:10:24;1.70;;;1.60;;
4409;SDS011;2218;51.408;7.208;2023-09-08T04:12:51;1.60;;;1.50;;
4409;SDS011;2218;51.408;7.208;2023-09-08T04:15:20;1.70;;;1.60;;
4409;SDS011;2218;51.408;7.208;2023-09-08T04:17:47;2.23;;;2.00;;
4409;SDS011;2218;51.408;7.208;2023-09-08T04:20:14;1.60;;;1.50;;
4409;SDS011;2218;51.408;7.208;2023-09-08T04:22:42;1.70;;;1.60;;
4409;SDS011;2218;51.408;7.208;2023-09-08T04:25:09;1.73;;;1.63;;
4409;SDS011;2218;51.408;7.208;2023-09-08T04:27:36;2.00;;;1.90;;
4409;SDS011;2218;51.408;7.208;2023-09-08T04:30:03;2.57;;;2.30;;
4409;SDS011;2218;51.408;7.208;2023-09-08T04:32:33;2.10;;;2.00;;
4409;SDS011;2218;51.408;7.208;2023-09-08T04:35:00;2.00;;;1.90;;
4409;SDS011;2218;51.408;7.208;2023-09-08T04:37:27;1.87;;;1.77;;
4409;SDS011;2218;51.408;7.208;2023-09-08T04:39:55;2.23;;;2.03;;
4409;SDS011;2218;51.408;7.208;2023-09-08T04:42:22;2.27;;;2.07;;
4409;SDS011;2218;51.408;7.208;2023-09-08T04:44:50;1.80;;;1.70;;
4409;SDS011;2218;51.408;7.208;2023-09-08T04:47:17;2.07;;;1.97;;
4409;SDS011;2218;51.408;7.208;2023-09-08T04:49:46;1.80;;;1.70;;
4409;SDS011;2218;51.408;7.208;2023-09-08T04:52:13;2.00;;;1.90;;
4409;SDS011;2218;51.408;7.208;2023-09-08T04:54:41;2.30;;;2.20;;
4409;SDS011;2218;51.408;7.208;2023-09-08T04:57:08;1.83;;;1.73;;
4409;SDS011;2218;51.408;7.208;2023-09-08T04:59:35;1.77;;;1.67;;
4409;SDS011;2218;51.408;7.208;2023-09-08T05:02:04;2.03;;;1.93;;
4409;SDS011;2218;51.408;7.208;2023-09-08T05:04:31;1.80;;;1.70;;
4409;SDS011;2218;51.408;7.208;2023-09-08T05:06:59;2.17;;;2.07;;
4409;SDS011;2218;51.408;7.208;2023-09-08T05:09:27;2.10;;;2.00;;
4409;SDS011;2218;51.408;7.208;2023-09-08T05:11:54;2.30;;;2.10;;
4409;SDS011;2218;51.408;7.208;2023-09-08T05:14:21;1.70;;;1.60;;
4409;SDS011;2218;51.408;7.208;2023-09-08T05:16:50;2.00;;;1.90;;
4409;SDS011;2218;51.408;7.208;2023-09-08T05:19:22;2.20;;;2.10;;
4409;SDS011;2218;51.408;7.208;2023-09-08T05:21:50;2.00;;;1.90;;
4409;SDS011;2218;51.408;7.208;2023-09-08T05:24:19;2.27;;;2.13;;
4409;SDS011;2218;51.408;7.208;2023-09-08T05:26:46;2.20;;;2.10;;
4409;SDS011;2218;51.408;7.208;2023-09-08T05:29:14;2.13;;;2.03;;
4409;SDS011;2218;51.408;7.208;2023-09-08T05:31:41;1.83;;;1.73;;
4409;SDS011;2218;51.408;7.208;2023-09-08T05:34:09;1.80;;;1.70;;
4409;SDS011;2218;51.408;7.208;2023-09-08T05:36:36;1.97;;;1.87;;
4409;SDS011;2218;51.408;7.208;2023-09-08T05:39:06;1.90;;;1.80;;
4409;SDS011;2218;51.408;7.208;2023-09-08T05:41:34;1.90;;;1.80;;
4409;SDS011;2218;51.408;7.208;2023-09-08T05:44:02;1.93;;;1.70;;
4409;SDS011;2218;51.408;7.208;2023-09-08T05:46:30;2.07;;;1.97;;
4409;SDS011;2218;51.408;7.208;2023-09-08T05:48:58;2.07;;;1.97;;
4409;SDS011;2218;51.408;7.208;2023-09-08T05:51:24;2.63;;;2.43;;
4409;SDS011;2218;51.408;7.208;2023-09-08T05:53:53;2.70;;;2.47;;
4409;SDS011;2218;51.408;7.208;2023-09-08T05:56:24;2.13;;;2.00;;
4409;SDS011;2218;51.408;7.208;2023-09-08T05:58:57;4.23;;;2.50;;
4409;SDS011;2218;51.408;7.208;2023-09-08T06:01:24;2.57;;;2.37;;
4409;SDS011;2218;51.408;7.208;2023-09-08T06:03:51;2.70;;;2.50;;
4409;SDS011;2218;51.408;7.208;2023-09-08T06:06:19;2.47;;;2.30;;
4409;SDS011;2218;51.408;7.208;2023-09-08T06:08:46;2.27;;;2.07;;
4409;SDS011;2218;51.408;7.208;2023-09-08T06:11:14;2.43;;;2.23;;
4409;SDS011;2218;51.408;7.208;2023-09-08T06:13:41;2.40;;;2.20;;
4409;SDS011;2218;51.408;7.208;2023-09-08T06:16:09;2.50;;;2.37;;
4409;SDS011;2218;51.408;7.208;2023-09-08T06:18:36;2.47;;;2.37;;
4409;SDS011;2218;51.408;7.208;2023-09-08T06:21:08;2.50;;;2.40;;
4409;SDS011;2218;51.408;7.208;2023-09-08T06:23:35;2.73;;;2.40;;
4409;SDS011;2218;51.408;7.208;2023-09-08T06:26:02;2.53;;;2.33;;
4409;SDS011;2218;51.408;7.208;2023-09-08T06:28:31;2.23;;;2.13;;
4409;SDS011;2218;51.408;7.208;2023-09-08T06:30:58;2.07;;;1.97;;
4409;SDS011;2218;51.408;7.208;2023-09-08T06:33:27;2.30;;;2.20;;
4409;SDS011;2218;51.408;7.208;2023-09-08T06:35:54;2.50;;;2.30;;
4409;SDS011;2218;51.408;7.208;2023-09-08T06:38:21;2.97;;;2.47;;
4409;SDS011;2218;51.408;7.208;2023-09-08T06:40:49;2.27;;;2.17;;
4409;SDS011;2218;51.408;7.208;2023-09-08T06:43:18;2.73;;;2.40;;
4409;SDS011;2218;51.408;7.208;2023-09-08T06:45:55;2.87;;;2.67;;
4409;SDS011;2218;51.408;7.208;2023-09-08T06:48:23;3.73;;;2.30;;
4409;SDS011;2218;51.408;7.208;2023-09-08T06:50:53;3.43;;;2.47;;
4409;SDS011;2218;51.408;7.208;2023-09-08T06:53:22;4.13;;;2.43;;
4409;SDS011;2218;51.408;7.208;2023-09-08T06:55:49;5.23;;;2.40;;
4409;SDS011;2218;51.408;7.208;2023-09-08T06:58:17;3.53;;;2.63;;
4409;SDS011;2218;51.408;7.208;2023-09-08T07:00:44;2.67;;;2.53;;
4409;SDS011;2218;51.408;7.208;2023-09-08T07:03:11;2.63;;;2.43;;
4409;SDS011;2218;51.408;7.208;2023-09-08T07:05:38;3.63;;;2.73;;
4409;SDS011;2218;51.408;7.208;2023-09-08T07:08:07;3.17;;;2.77;;
4409;SDS011;2218;51.408;7.208;2023-09-08T07:10:34;3.73;;;2.90;;
4409;SDS011;2218;51.408;7.208;2023-09-08T07:13:01;5.47;;;3.37;;
4409;SDS011;2218;51.408;7.208;2023-09-08T07:15:28;3.83;;;3.50;;
4409;SDS011;2218;51.408;7.208;2023-09-08T07:17:56;3.57;;;3.27;;
4409;SDS011;2218;51.408;7.208;2023-09-08T07:20:23;3.13;;;2.83;;
4409;SDS011;2218;51.408;7.208;2023-09-08T07:22:50;6.23;;;3.40;;
4409;SDS011;2218;51.408;7.208;2023-09-08T07:25:18;2.93;;;2.73;;
4409;SDS011;2218;51.408;7.208;2023-09-08T07:27:45;5.83;;;3.70;;
4409;SDS011;2218;51.408;7.208;2023-09-08T07:30:13;3.57;;;3.27;;
4409;SDS011;2218;51.408;7.208;2023-09-08T07:32:40;4.40;;;3.43;;
4409;SDS011;2218;51.408;7.208;2023-09-08T07:35:07;3.73;;;3.20;;
4409;SDS011;2218;51.408;7.208;2023-09-08T07:37:39;3.40;;;2.97;;
4409;SDS011;2218;51.408;7.208;2023-09-08T07:40:07;3.10;;;2.90;;
4409;SDS011;2218;51.408;7.208;2023-09-08T07:42:37;3.03;;;2.73;;
4409;SDS011;2218;51.408;7.208;2023-09-08T07:45:04;6.53;;;3.30;;
4409;SDS011;2218;51.408;7.208;2023-09-08T07:47:34;3.20;;;2.93;;
4409;SDS011;2218;51.408;7.208;2023-09-08T07:50:16;3.70;;;3.40;;
4409;SDS011;2218;51.408;7.208;2023-09-08T07:52:46;4.00;;;3.70;;
4409;SDS011;2218;51.408;7.208;2023-09-08T07:55:13;3.30;;;3.10;;
4409;SDS011;2218;51.408;7.208;2023-09-08T07:57:42;3.47;;;2.93;;
4409;SDS011;2218;51.408;7.208;2023-09-08T08:00:11;4.20;;;3.80;;
4409;SDS011;2218;51.408;7.208;2023-09-08T08:02:41;7.23;;;3.40;;
4409;SDS011;2218;51.408;7.208;2023-09-08T08:05:11;4.10;;;2.87;;
4409;SDS011;2218;51.408;7.208;2023-09-08T08:07:39;7.00;;;3.73;;
4409;SDS011;2218;51.408;7.208;2023-09-08T08:10:08;8.30;;;3.63;;
4409;SDS011;2218;51.408;7.208;2023-09-08T08:12:37;3.80;;;3.23;;
4409;SDS011;2218;51.408;7.208;2023-09-08T08:15:06;7.20;;;3.60;;
4409;SDS011;2218;51.408;7.208;2023-09-08T08:17:36;4.03;;;3.70;;
4409;SDS011;2218;51.408;7.208;2023-09-08T08:20:04;4.73;;;3.00;;
4409;SDS011;2218;51.408;7.208;2023-09-08T08:22:35;3.33;;;3.03;;
4409;SDS011;2218;51.408;7.208;2023-09-08T08:25:02;6.50;;;3.40;;
4409;SDS011;2218;51.408;7.208;2023-09-08T08:27:30;4.00;;;3.50;;
4409;SDS011;2218;51.408;7.208;2023-09-08T08:29:57;4.17;;;3.50;;
4409;SDS011;2218;51.408;7.208;2023-09-08T08:32:27;4.10;;;3.70;;
4409;SDS011;2218;51.408;7.208;2023-09-08T08:34:54;3.33;;;3.07;;
4409;SDS011;2218;51.408;7.208;2023-09-08T08:37:22;3.77;;;3.10;;
4409;SDS011;2218;51.408;7.208;2023-09-08T08:39:49;3.30;;;3.10;;
4409;SDS011;2218;51.408;7.208;2023-09-08T08:42:16;7.03;;;3.63;;
4409;SDS011;2218;51.408;7.208;2023-09-08T08:44:47;3.03;;;2.83;;
4409;SDS011;2218;51.408;7.208;2023-09-08T08:47:15;3.80;;;3.20;;
4409;SDS011;2218;51.408;7.208;2023-09-08T08:49:45;4.03;;;3.30;;
4409;SDS011;2218;51.408;7.208;2023-09-08T08:52:14;3.60;;;3.40;;
4409;SDS011;2218;51.408;7.208;2023-09-08T08:54:42;3.40;;;3.10;;
4409;SDS011;2218;51.408;7.208;2023-09-08T08:57:12;4.27;;;3.87;;
4409;SDS011;2218;51.408;7.208;2023-09-08T08:59:40;3.27;;;3.03;;
4409;SDS011;2218;51.408;7.208;2023-09-08T09:02:07;3.70;;;3.40;;
4409;SDS011;2218;51.408;7.208;2023-09-08T09:04:39;4.00;;;3.57;;
4409;SDS011;2218;51.408;7.208;2023-09-08T09:07:08;4.60;;;4.20;;
4409;SDS011;2218;51.408;7.208;2023-09-08T09:09:37;4.03;;;3.57;;
4409;SDS011;2218;51.408;7.208;2023-09-08T09:12:04;5.83;;;4.17;;
4409;SDS011;2218;51.408;7.208;2023-09-08T09:14:33;4.03;;;3.63;;
4409;SDS011;2218;51.408;7.208;2023-09-08T09:17:00;6.20;;;3.83;;
4409;SDS011;2218;51.408;7.208;2023-09-08T09:19:30;5.00;;;3.90;;
4409;SDS011;2218;51.408;7.208;2023-09-08T09:21:57;6.33;;;4.17;;
4409;SDS011;2218;51.408;7.208;2023-09-08T09:24:30;4.00;;;3.70;;
4409;SDS011;2218;51.408;7.208;2023-09-08T09:26:59;4.23;;;3.80;;
4409;SDS011;2218;51.408;7.208;2023-09-08T09:29:26;4.10;;;3.70;;
4409;SDS011;2218;51.408;7.208;2023-09-08T09:31:55;5.07;;;4.03;;
4409;SDS011;2218;51.408;7.208;2023-09-08T09:34:24;5.13;;;4.10;;
4409;SDS011;2218;51.408;7.208;2023-09-08T09:36:51;5.33;;;3.60;;
4409;SDS011;2218;51.408;7.208;2023-09-08T09:39:19;7.17;;;3.60;;
4409;SDS011;2218;51.408;7.208;2023-09-08T09:41:52;4.80;;;3.50;;
4409;SDS011;2218;51.408;7.208;2023-09-08T09:44:21;3.37;;;3.07;;
4409;SDS011;2218;51.408;7.208;2023-09-08T09:46:51;4.10;;;3.70;;
4409;SDS011;2218;51.408;7.208;2023-09-08T09:49:19;7.30;;;3.20;;
4409;SDS011;2218;51.408;7.208;2023-09-08T09:51:48;4.20;;;3.33;;
4409;SDS011;2218;51.408;7.208;2023-09-08T09:54:19;3.03;;;2.83;;
4409;SDS011;2218;51.408;7.208;2023-09-08T09:56:46;3.57;;;3.27;;
4409;SDS011;2218;51.408;7.208;2023-09-08T09:59:15;5.80;;;3.60;;
4409;SDS011;2218;51.408;7.208;2023-09-08T10:01:42;3.30;;;3.10;;
4409;SDS011;2218;51.408;7.208;2023-09-08T10:04:11;3.47;;;3.07;;
4409;SDS011;2218;51.408;7.208;2023-09-08T10:06:40;3.47;;;3.17;;
4409;SDS011;2218;51.408;7.208;2023-09-08T10:09:08;8.33;;;3.10;;
4409;SDS011;2218;51.408;7.208;2023-09-08T10:11:40;3.10;;;2.30;;
4409;SDS011;2218;51.408;7.208;2023-09-08T10:14:11;4.50;;;2.90;;
4409;SDS011;2218;51.408;7.208;2023-09-08T10:16:43;4.88;;;2.90;;
4409;SDS011;2218;51.408;7.208;2023-09-08T10:19:14;4.97;;;3.20;;
4409;SDS011;2218;51.408;7.208;2023-09-08T10:21:45;3.20;;;3.00;;
4409;SDS011;2218;51.408;7.208;2023-09-08T10:24:14;3.30;;;3.10;;
4409;SDS011;2218;51.408;7.208;2023-09-08T10:26:56;3.87;;;2.80;;
4409;SDS011;2218;51.408;7.208;2023-09-08T10:29:31;3.00;;;2.80;;
4409;SDS011;2218;51.408;7.208;2023-09-08T10:31:59;3.83;;;3.43;;
4409;SDS011;2218;51.408;7.208;2023-09-08T10:34:28;6.17;;;3.30;;
4409;SDS011;2218;51.408;7.208;2023-09-08T10:36:57;3.73;;;3.43;;
4409;SDS011;2218;51.408;7.208;2023-09-08T10:39:28;5.03;;;3.60;;
4409;SDS011;2218;51.408;7.208;2023-09-08T10:45:01;4.33;;;3.30;;
4409;SDS011;2218;51.408;7.208;2023-09-08T10:47:41;6.53;;;3.80;;
4409;SDS011;2218;51.408;7.208;2023-09-08T10:50:26;3.73;;;3.37;;
4409;SDS011;2218;51.408;7.208;2023-09-08T10:53:07;6.00;;;4.20;;
4409;SDS011;2218;51.408;7.208;2023-09-08T10:55:39;4.07;;;3.70;;
4409;SDS011;2218;51.408;7.208;2023-09-08T10:58:16;5.47;;;3.43;;
4409;SDS011;2218;51.408;7.208;2023-09-08T11:00:47;6.30;;;3.73;;
4409;SDS011;2218;51.408;7.208;2023-09-08T11:03:26;6.43;;;3.30;;
4409;SDS011;2218;51.408;7.208;2023-09-08T11:06:08;3.90;;;3.50;;
4409;SDS011;2218;51.408;7.208;2023-09-08T11:08:37;4.37;;;3.97;;
4409;SDS011;2218;51.408;7.208;2023-09-08T11:11:07;11.23;;;4.00;;
4409;SDS011;2218;51.408;7.208;2023-09-08T11:13:37;4.37;;;4.00;;
4409;SDS011;2218;51.408;7.208;2023-09-08T11:16:06;5.53;;;4.40;;
4409;SDS011;2218;51.408;7.208;2023-09-08T11:18:34;5.63;;;4.20;;
4409;SDS011;2218;51.408;7.208;2023-09-08T11:21:02;5.70;;;3.90;;
4409;SDS011;2218;51.408;7.208;2023-09-08T11:23:33;5.13;;;3.43;;
4409;SDS011;2218;51.408;7.208;2023-09-08T11:26:00;8.63;;;3.90;;
4409;SDS011;2218;51.408;7.208;2023-09-08T11:28:27;3.80;;;3.50;;
4409;SDS011;2218;51.408;7.208;2023-09-08T11:30:54;6.27;;;4.30;;
4409;SDS011;2218;51.408;7.208;2023-09-08T11:33:23;9.50;;;4.23;;
4409;SDS011;2218;51.408;7.208;2023-09-08T11:35:50;6.63;;;4.70;;
4409;SDS011;2218;51.408;7.208;2023-09-08T11:38:19;5.20;;;4.43;;
4409;SDS011;2218;51.408;7.208;2023-09-08T11:40:50;7.20;;;4.80;;
4409;SDS011;2218;51.408;7.208;2023-09-08T11:43:18;4.73;;;4.33;;
4409;SDS011;2218;51.408;7.208;2023-09-08T11:45:46;7.50;;;4.43;;
4409;SDS011;2218;51.408;7.208;2023-09-08T11:48:13;7.93;;;4.20;;
4409;SDS011;2218;51.408;7.208;2023-09-08T11:50:43;4.80;;;4.10;;
4409;SDS011;2218;51.408;7.208;2023-09-08T11:53:10;4.97;;;4.37;;
4409;SDS011;2218;51.408;7.208;2023-09-08T11:55:36;6.97;;;4.57;;
4409;SDS011;2218;51.408;7.208;2023-09-08T11:58:04;9.47;;;4.07;;
4409;SDS011;2218;51.408;7.208;2023-09-08T12:00:31;4.67;;;3.77;;
4409;SDS011;2218;51.408;7.208;2023-09-08T12:03:09;8.70;;;4.33;;
4409;SDS011;2218;51.408;7.208;2023-09-08T12:05:37;4.40;;;4.00;;
4409;SDS011;2218;51.408;7.208;2023-09-08T12:08:07;4.70;;;4.30;;
4409;SDS011;2218;51.408;7.208;2023-09-08T12:10:37;4.43;;;4.10;;
4409;SDS011;2218;51.408;7.208;2023-09-08T12:13:05;4.23;;;3.83;;
4409;SDS011;2218;51.408;7.208;2023-09-08T12:15:34;5.10;;;3.53;;
4409;SDS011;2218;51.408;7.208;2023-09-08T12:18:03;4.03;;;3.60;;
4409;SDS011;2218;51.408;7.208;2023-09-08T12:20:33;5.50;;;3.77;;
4409;SDS011;2218;51.408;7.208;2023-09-08T12:23:02;4.57;;;3.27;;
4409;SDS011;2218;51.408;7.208;2023-09-08T12:25:34;3.57;;;3.27;;
4409;SDS011;2218;51.408;7.208;2023-09-08T12:28:11;13.53;;;3.57;;
4409;SDS011;2218;51.408;7.208;2023-09-08T12:30:38;2.90;;;2.70;;
4409;SDS011;2218;51.408;7.208;2023-09-08T12:33:05;2.80;;;2.60;;
4409;SDS011;2218;51.408;7.208;2023-09-08T12:35:34;2.80;;;2.60;;
4409;SDS011;2218;51.408;7.208;2023-09-08T12:38:02;3.20;;;2.40;;
4409;SDS011;2218;51.408;7.208;2023-09-08T12:40:32;2.80;;;2.60;;
4409;SDS011;2218;51.408;7.208;2023-09-08T12:43:02;10.30;;;2.23;;
4409;SDS011;2218;51.408;7.208;2023-09-08T12:45:30;2.40;;;2.30;;
4409;SDS011;2218;51.408;7.208;2023-09-08T12:47:58;1.80;;;1.70;;
4409;SDS011;2218;51.408;7.208;2023-09-08T12:50:27;3.27;;;2.30;;
4409;SDS011;2218;51.408;7.208;2023-09-08T12:52:55;2.80;;;2.40;;
4409;SDS011;2218;51.408;7.208;2023-09-08T12:55:23;2.30;;;2.20;;
4409;SDS011;2218;51.408;7.208;2023-09-08T12:57:51;2.20;;;2.10;;
4409;SDS011;2218;51.408;7.208;2023-09-08T13:00:20;2.30;;;2.20;;
4409;SDS011;2218;51.408;7.208;2023-09-08T13:02:48;2.10;;;2.00;;
4409;SDS011;2218;51.408;7.208;2023-09-08T13:05:15;2.20;;;2.00;;
4409;SDS011;2218;51.408;7.208;2023-09-08T13:07:42;1.80;;;1.70;;
4409;SDS011;2218;51.408;7.208;2023-09-08T13:10:09;2.50;;;2.30;;
4409;SDS011;2218;51.408;7.208;2023-09-08T13:12:36;2.00;;;1.90;;
4409;SDS011;2218;51.408;7.208;2023-09-08T13:15:05;3.00;;;2.50;;
4409;SDS011;2218;51.408;7.208;2023-09-08T13:17:33;15.00;;;2.37;;
4409;SDS011;2218;51.408;7.208;2023-09-08T13:20:01;2.20;;;2.07;;
4409;SDS011;2218;51.408;7.208;2023-09-08T13:22:28;6.70;;;2.27;;
4409;SDS011;2218;51.408;7.208;2023-09-08T13:24:55;4.50;;;2.17;;
4409;SDS011;2218;51.408;7.208;2023-09-08T13:27:22;6.37;;;2.50;;
4409;SDS011;2218;51.408;7.208;2023-09-08T13:29:49;2.50;;;2.07;;
4409;SDS011;2218;51.408;7.208;2023-09-08T13:32:17;3.13;;;2.23;;
4409;SDS011;2218;51.408;7.208;2023-09-08T13:34:44;2.80;;;2.10;;
4409;SDS011;2218;51.408;7.208;2023-09-08T13:37:13;3.13;;;2.17;;
4409;SDS011;2218;51.408;7.208;2023-09-08T13:39:40;5.00;;;2.37;;
4409;SDS011;2218;51.408;7.208;2023-09-08T13:42:07;2.87;;;2.40;;
4409;SDS011;2218;51.408;7.208;2023-09-08T13:44:34;2.33;;;2.13;;
4409;SDS011;2218;51.408;7.208;2023-09-08T13:47:01;2.10;;;2.00;;
4409;SDS011;2218;51.408;7.208;2023-09-08T13:49:31;5.83;;;2.53;;
4409;SDS011;2218;51.408;7.208;2023-09-08T13:51:58;2.67;;;2.47;;
4409;SDS011;2218;51.408;7.208;2023-09-08T13:54:25;2.33;;;2.13;;
4409;SDS011;2218;51.408;7.208;2023-09-08T13:56:57;2.27;;;2.00;;
4409;SDS011;2218;51.408;7.208;2023-09-08T13:59:26;2.40;;;2.20;;
4409;SDS011;2218;51.408;7.208;2023-09-08T14:01:54;2.37;;;2.17;;
4409;SDS011;2218;51.408;7.208;2023-09-08T14:04:22;2.37;;;2.17;;
4409;SDS011;2218;51.408;7.208;2023-09-08T14:06:51;1.87;;;1.77;;
4409;SDS011;2218;51.408;7.208;2023-09-08T14:09:18;2.30;;;2.20;;
4409;SDS011;2218;51.408;7.208;2023-09-08T14:11:45;2.30;;;2.20;;
4409;SDS011;2218;51.408;7.208;2023-09-08T14:14:12;2.43;;;1.93;;
4409;SDS011;2218;51.408;7.208;2023-09-08T14:16:38;3.80;;;2.23;;
4409;SDS011;2218;51.408;7.208;2023-09-08T14:19:05;4.80;;;2.67;;
4409;SDS011;2218;51.408;7.208;2023-09-08T14:21:32;2.50;;;2.33;;
4409;SDS011;2218;51.408;7.208;2023-09-08T14:24:00;5.70;;;1.97;;
4409;SDS011;2218;51.408;7.208;2023-09-08T14:26:27;2.40;;;2.20;;
4409;SDS011;2218;51.408;7.208;2023-09-08T14:28:54;2.00;;;1.90;;
4409;SDS011;2218;51.408;7.208;2023-09-08T14:31:21;5.73;;;2.37;;
4409;SDS011;2218;51.408;7.208;2023-09-08T14:33:48;2.80;;;1.80;;
4409;SDS011;2218;51.408;7.208;2023-09-08T14:36:18;2.30;;;1.73;;
4409;SDS011;2218;51.408;7.208;2023-09-08T14:38:46;2.10;;;2.00;;
4409;SDS011;2218;51.408;7.208;2023-09-08T14:41:14;2.60;;;1.90;;
4409;SDS011;2218;51.408;7.208;2023-09-08T14:43:49;2.50;;;1.80;;
4409;SDS011;2218;51.408;7.208;2023-09-08T14:46:16;2.40;;;2.20;;
4409;SDS011;2218;51.408;7.208;2023-09-08T14:48:44;2.20;;;2.10;;
4409;SDS011;2218;51.408;7.208;2023-09-08T14:51:11;2.40;;;2.20;;
4409;SDS011;2218;51.408;7.208;2023-09-08T14:53:38;3.03;;;2.40;;
4409;SDS011;2218;51.408;7.208;2023-09-08T14:56:05;2.30;;;2.10;;
4409;SDS011;2218;51.408;7.208;2023-09-08T14:58:33;2.20;;;2.00;;
4409;SDS011;2218;51.408;7.208;2023-09-08T15:01:00;2.20;;;2.10;;
4409;SDS011;2218;51.408;7.208;2023-09-08T15:03:30;2.00;;;1.90;;
4409;SDS011;2218;51.408;7.208;2023-09-08T15:05:57;3.67;;;2.20;;
4409;SDS011;2218;51.408;7.208;2023-09-08T15:08:24;2.47;;;2.27;;
4409;SDS011;2218;51.408;7.208;2023-09-08T15:10:51;1.73;;;1.63;;
4409;SDS011;2218;51.408;7.208;2023-09-08T15:13:18;2.40;;;1.77;;
4409;SDS011;2218;51.408;7.208;2023-09-08T15:15:47;2.03;;;1.93;;
4409;SDS011;2218;51.408;7.208;2023-09-08T15:18:13;2.20;;;2.00;;
4409;SDS011;2218;51.408;7.208;2023-09-08T15:20:49;2.20;;;2.07;;
4409;SDS011;2218;51.408;7.208;2023-09-08T15:23:17;2.27;;;2.13;;
4409;SDS011;2218;51.408;7.208;2023-09-08T15:25:50;2.37;;;2.27;;
4409;SDS011;2218;51.408;7.208;2023-09-08T15:28:18;2.20;;;2.00;;